sensor_id;sensor_type;location;lat;lon;timestamp;pressure;altitude;pressure_sealevel;temperature;humidity
70902;BME280;58548;47.210;8.618;2024-01-15T00:02:14;93111.91;;;11.69;38.43
70902;BME280;58548;47.210;8.618;2024-01-15T00:04:41;93055.16;;;11.21;39.00
70902;BME280;58548;47.210;8.618;2024-01-15T00:07:08;93022.44;;;10.99;39.14
70902;BME280;58548;47.210;8.618;2024-01-15T00:09:34;93100.13;;;11.60;38.85
70902;BME280;58548;47.210;8.618;2024-01-15T00:12:05;92996.06;;;11.01;39.22
70902;BME280;58548;47.210;8.618;2024-01-15T00:14:33;93003.56;;;10.97;39.27
70902;BME280;58548;47.210;8.618;2024-01-15T00:16:59;93037.44;;;11.23;39.63
70902;BME280;58548;47.210;8.618;2024-01-15T00:19:29;93085.25;;;11.60;39.41
70902;BME280;58548;47.210;8.618;2024-01-15T00:21:57;93081.19;;;11.65;38.97
70902;BME280;58548;47.210;8.618;2024-01-15T00:24:24;93083.34;;;11.68;39.08
70902;BME280;58548;47.210;8.618;2024-01-15T00:26:55;93058.53;;;11.58;39.35
70902;BME280;58548;47.210;8.618;2024-01-15T00:29:23;92983.75;;;11.08;39.42
70902;BME280;58548;47.210;8.618;2024-01-15T00:31:49;93015.13;;;11.39;38.79
70902;BME280;58548;47.210;8.618;2024-01-15T00:34:15;92986.59;;;11.37;39.34
70902;BME280;58548;47.210;8.618;2024-01-15T00:36:41;92985.81;;;11.37;39.24
70902;BME280;58548;47.210;8.618;2024-01-15T00:39:09;92974.03;;;11.27;39.63
70902;BME280;58548;47.210;8.618;2024-01-15T00:41:36;92961.59;;;11.11;39.43
70902;BME280;58548;47.210;8.618;2024-01-15T00:44:05;93058.19;;;11.67;38.99
70902;BME280;58548;47.210;8.618;2024-01-15T00:46:31;92998.53;;;11.33;39.34
70902;BME280;58548;47.210;8.618;2024-01-15T00:48:59;93017.00;;;11.50;39.36
70902;BME280;58548;47.210;8.618;2024-01-15T00:51:24;93029.75;;;11.58;39.23
70902;BME280;58548;47.210;8.618;2024-01-15T00:53:53;92969.19;;;11.31;39.53
70902;BME280;58548;47.210;8.618;2024-01-15T00:56:21;93024.72;;;11.75;38.79
70902;BME280;58548;47.210;8.618;2024-01-15T00:58:47;93044.19;;;11.91;38.68
70902;BME280;58548;47.210;8.618;2024-01-15T01:01:15;93040.22;;;11.89;38.51
70902;BME280;58548;47.210;8.618;2024-01-15T01:03:41;93036.34;;;11.91;38.90
70902;BME280;58548;47.210;8.618;2024-01-15T01:06:09;92962.97;;;11.44;38.81
70902;BME280;58548;47.210;8.618;2024-01-15T01:08:38;93038.19;;;11.91;38.57
70902;BME280;58548;47.210;8.618;2024-01-15T01:11:06;93048.63;;;11.91;38.67
70902;BME280;58548;47.210;8.618;2024-01-15T01:13:37;93057.72;;;11.88;38.53
70902;BME280;58548;47.210;8.618;2024-01-15T01:16:06;93037.91;;;11.81;38.92
70902;BME280;58548;47.210;8.618;2024-01-15T01:18:34;93059.88;;;11.91;38.33
70902;BME280;58548;47.210;8.618;2024-01-15T01:21:03;93040.06;;;11.84;38.59
70902;BME280;58548;47.210;8.618;2024-01-15T01:23:31;92978.88;;;11.42;38.65
70902;BME280;58548;47.210;8.618;2024-01-15T01:25:57;92995.78;;;11.58;38.15
70902;BME280;58548;47.210;8.618;2024-01-15T01:28:23;93053.78;;;11.98;38.82
70902;BME280;58548;47.210;8.618;2024-01-15T01:30:48;92977.09;;;11.55;38.65
70902;BME280;58548;47.210;8.618;2024-01-15T01:33:14;93019.00;;;11.79;38.26
70902;BME280;58548;47.210;8.618;2024-01-15T01:35:42;92973.13;;;11.52;38.28
70902;BME280;58548;47.210;8.618;2024-01-15T01:38:09;92971.31;;;11.53;38.32
70902;BME280;58548;47.210;8.618;2024-01-15T01:40:37;93028.59;;;11.85;38.44
70902;BME280;58548;47.210;8.618;2024-01-15T01:43:05;93042.91;;;12.01;38.64
70902;BME280;58548;47.210;8.618;2024-01-15T01:45:35;92989.88;;;11.63;38.27
70902;BME280;58548;47.210;8.618;2024-01-15T01:48:01;93048.13;;;12.01;37.86
70902;BME280;58548;47.210;8.618;2024-01-15T01:50:29;92963.53;;;11.46;38.24
70902;BME280;58548;47.210;8.618;2024-01-15T01:53:01;93041.47;;;11.98;38.54
70902;BME280;58548;47.210;8.618;2024-01-15T01:55:31;92964.69;;;11.50;38.68
70902;BME280;58548;47.210;8.618;2024-01-15T01:58:01;93009.03;;;11.87;38.31
70902;BME280;58548;47.210;8.618;2024-01-15T02:00:30;92985.78;;;11.67;38.28
70902;BME280;58548;47.210;8.618;2024-01-15T02:02:59;92958.19;;;11.41;38.16
70902;BME280;58548;47.210;8.618;2024-01-15T02:05:30;93043.75;;;11.95;38.46
70902;BME280;58548;47.210;8.618;2024-01-15T02:07:56;93051.16;;;11.98;38.56
70902;BME280;58548;47.210;8.618;2024-01-15T02:10:22;93048.13;;;12.01;38.68
70902;BME280;58548;47.210;8.618;2024-01-15T02:12:53;93019.97;;;11.84;38.06
70902;BME280;58548;47.210;8.618;2024-01-15T02:15:21;93046.66;;;12.05;38.02
70902;BME280;58548;47.210;8.618;2024-01-15T02:18:00;93038.50;;;11.95;38.46
70902;BME280;58548;47.210;8.618;2024-01-15T02:20:26;93029.50;;;11.90;38.06
70902;BME280;58548;47.210;8.618;2024-01-15T02:22:52;93029.66;;;11.96;38.05
70902;BME280;58548;47.210;8.618;2024-01-15T02:25:18;93030.09;;;11.92;38.34
70902;BME280;58548;47.210;8.618;2024-01-15T02:27:46;92974.28;;;11.56;38.24
70902;BME280;58548;47.210;8.618;2024-01-15T02:30:12;93063.03;;;12.12;38.36
70902;BME280;58548;47.210;8.618;2024-01-15T02:32:38;92980.53;;;11.55;37.96
70902;BME280;58548;47.210;8.618;2024-01-15T02:35:07;93069.22;;;12.18;37.68
70902;BME280;58548;47.210;8.618;2024-01-15T02:37:35;93045.97;;;12.10;38.05
70902;BME280;58548;47.210;8.618;2024-01-15T02:40:04;92996.41;;;11.84;37.20
70902;BME280;58548;47.210;8.618;2024-01-15T02:42:30;92987.31;;;11.87;36.48
70902;BME280;58548;47.210;8.618;2024-01-15T02:44:58;93046.00;;;12.21;35.87
70902;BME280;58548;47.210;8.618;2024-01-15T02:47:24;93060.69;;;12.23;35.92
70902;BME280;58548;47.210;8.618;2024-01-15T02:49:52;93057.72;;;12.07;36.11
70902;BME280;58548;47.210;8.618;2024-01-15T02:52:18;93050.25;;;11.92;36.22
70902;BME280;58548;47.210;8.618;2024-01-15T02:54:46;93044.72;;;11.82;36.13
70902;BME280;58548;47.210;8.618;2024-01-15T02:57:12;92954.78;;;11.10;36.59
70902;BME280;58548;47.210;8.618;2024-01-15T02:59:40;92967.00;;;10.97;36.53
70902;BME280;58548;47.210;8.618;2024-01-15T03:02:08;93053.59;;;11.50;36.49
70902;BME280;58548;47.210;8.618;2024-01-15T03:04:42;93045.78;;;11.31;36.57
70902;BME280;58548;47.210;8.618;2024-01-15T03:07:08;93046.22;;;11.28;37.05
70902;BME280;58548;47.210;8.618;2024-01-15T03:09:34;93059.78;;;11.37;37.09
70902;BME280;58548;47.210;8.618;2024-01-15T03:11:59;93058.34;;;11.23;36.67
70902;BME280;58548;47.210;8.618;2024-01-15T03:14:25;92982.13;;;10.70;36.96
70902;BME280;58548;47.210;8.618;2024-01-15T03:16:52;93076.28;;;11.19;36.93
70902;BME280;58548;47.210;8.618;2024-01-15T03:19:20;93017.41;;;10.79;36.71
70902;BME280;58548;47.210;8.618;2024-01-15T03:21:46;93066.84;;;11.18;36.85
70902;BME280;58548;47.210;8.618;2024-01-15T03:24:14;92972.66;;;10.57;36.77
70902;BME280;58548;47.210;8.618;2024-01-15T03:26:43;93067.41;;;11.01;36.75
70902;BME280;58548;47.210;8.618;2024-01-15T03:29:08;92955.28;;;10.19;36.73
70902;BME280;58548;47.210;8.618;2024-01-15T03:31:34;92987.69;;;10.36;36.38
70902;BME280;58548;47.210;8.618;2024-01-15T03:34:00;93068.56;;;10.87;37.05
70902;BME280;58548;47.210;8.618;2024-01-15T03:36:26;92989.53;;;10.29;36.59
70902;BME280;58548;47.210;8.618;2024-01-15T03:38:52;93052.88;;;10.68;37.04
70902;BME280;58548;47.210;8.618;2024-01-15T03:41:18;92975.75;;;10.22;36.87
70902;BME280;58548;47.210;8.618;2024-01-15T03:43:44;92981.25;;;10.39;36.51
70902;BME280;58548;47.210;8.618;2024-01-15T03:46:12;93042.00;;;10.71;36.57
70902;BME280;58548;47.210;8.618;2024-01-15T03:48:40;93061.16;;;10.84;37.38
70902;BME280;58548;47.210;8.618;2024-01-15T03:51:06;93067.53;;;10.88;37.32
70902;BME280;58548;47.210;8.618;2024-01-15T03:53:35;92971.22;;;10.36;37.39
70902;BME280;58548;47.210;8.618;2024-01-15T03:56:03;93062.31;;;10.88;37.03
70902;BME280;58548;47.210;8.618;2024-01-15T03:58:30;93044.19;;;10.93;37.34
70902;BME280;58548;47.210;8.618;2024-01-15T04:00:58;93045.47;;;10.84;36.79
70902;BME280;58548;47.210;8.618;2024-01-15T04:03:28;92969.00;;;10.39;37.38
70902;BME280;58548;47.210;8.618;2024-01-15T04:05:57;93037.06;;;10.82;36.86
70902;BME280;58548;47.210;8.618;2024-01-15T04:08:22;93017.06;;;10.76;36.92
70902;BME280;58548;47.210;8.618;2024-01-15T04:10:48;93048.56;;;10.99;36.94
70902;BME280;58548;47.210;8.618;2024-01-15T04:13:14;92945.28;;;10.41;36.95
70902;BME280;58548;47.210;8.618;2024-01-15T04:15:40;93035.63;;;11.05;36.67
70902;BME280;58548;47.210;8.618;2024-01-15T04:18:06;93040.56;;;11.13;36.59
70902;BME280;58548;47.210;8.618;2024-01-15T04:20:32;93040.78;;;11.11;36.56
70902;BME280;58548;47.210;8.618;2024-01-15T04:23:00;92973.44;;;10.58;36.39
70902;BME280;58548;47.210;8.618;2024-01-15T04:25:26;92943.78;;;10.52;36.55
70902;BME280;58548;47.210;8.618;2024-01-15T04:27:54;92950.59;;;10.53;36.39
70902;BME280;58548;47.210;8.618;2024-01-15T04:30:20;93031.72;;;11.14;36.62
70902;BME280;58548;47.210;8.618;2024-01-15T04:32:48;92946.41;;;10.52;36.19
70902;BME280;58548;47.210;8.618;2024-01-15T04:35:16;93037.38;;;11.11;36.15
70902;BME280;58548;47.210;8.618;2024-01-15T04:37:42;92950.59;;;10.53;36.50
70902;BME280;58548;47.210;8.618;2024-01-15T04:40:11;92959.16;;;10.60;36.42
70902;BME280;58548;47.210;8.618;2024-01-15T04:42:36;93017.06;;;10.94;36.44
70902;BME280;58548;47.210;8.618;2024-01-15T04:45:03;93043.34;;;10.99;35.74
70902;BME280;58548;47.210;8.618;2024-01-15T04:47:31;92925.81;;;10.18;35.98
70902;BME280;58548;47.210;8.618;2024-01-15T04:49:57;93054.47;;;10.88;36.63
70902;BME280;58548;47.210;8.618;2024-01-15T04:52:23;93032.22;;;10.85;36.24
70902;BME280;58548;47.210;8.618;2024-01-15T04:54:51;93048.41;;;10.94;36.24
70902;BME280;58548;47.210;8.618;2024-01-15T04:57:19;92969.25;;;10.31;35.99
70902;BME280;58548;47.210;8.618;2024-01-15T04:59:45;92963.97;;;10.38;36.29
70902;BME280;58548;47.210;8.618;2024-01-15T05:02:16;93026.31;;;10.71;36.09
70902;BME280;58548;47.210;8.618;2024-01-15T05:04:43;93032.72;;;10.76;36.31
70902;BME280;58548;47.210;8.618;2024-01-15T05:07:12;93044.03;;;10.69;36.43
70902;BME280;58548;47.210;8.618;2024-01-15T05:09:38;92959.06;;;10.23;36.42
70902;BME280;58548;47.210;8.618;2024-01-15T05:12:04;93050.13;;;10.82;36.63
70902;BME280;58548;47.210;8.618;2024-01-15T05:14:32;93036.19;;;10.69;36.49
70902;BME280;58548;47.210;8.618;2024-01-15T05:16:58;93053.69;;;10.88;36.17
70902;BME280;58548;47.210;8.618;2024-01-15T05:19:24;93049.09;;;10.83;35.83
70902;BME280;58548;47.210;8.618;2024-01-15T05:21:52;93003.00;;;10.51;35.11
70902;BME280;58548;47.210;8.618;2024-01-15T05:24:20;93050.00;;;10.77;35.47
70902;BME280;58548;47.210;8.618;2024-01-15T05:26:46;92996.53;;;10.35;35.47
70902;BME280;58548;47.210;8.618;2024-01-15T05:29:15;93012.31;;;10.47;35.30
70902;BME280;58548;47.210;8.618;2024-01-15T05:31:41;93054.03;;;10.73;35.28
70902;BME280;58548;47.210;8.618;2024-01-15T05:34:07;93048.81;;;10.73;35.60
70902;BME280;58548;47.210;8.618;2024-01-15T05:36:35;93039.22;;;10.66;35.25
70902;BME280;58548;47.210;8.618;2024-01-15T05:39:01;92976.91;;;10.26;35.83
70902;BME280;58548;47.210;8.618;2024-01-15T05:41:29;93045.63;;;10.70;35.21
70902;BME280;58548;47.210;8.618;2024-01-15T05:44:00;93046.78;;;10.75;35.63
70902;BME280;58548;47.210;8.618;2024-01-15T05:46:26;92972.94;;;10.23;35.07
70902;BME280;58548;47.210;8.618;2024-01-15T05:48:52;93057.59;;;10.78;35.47
70902;BME280;58548;47.210;8.618;2024-01-15T05:51:17;93046.94;;;10.80;35.92
70902;BME280;58548;47.210;8.618;2024-01-15T05:53:46;92982.66;;;10.35;34.99
70902;BME280;58548;47.210;8.618;2024-01-15T05:56:14;93047.97;;;10.79;35.82
70902;BME280;58548;47.210;8.618;2024-01-15T05:58:40;92958.13;;;10.17;35.25
70902;BME280;58548;47.210;8.618;2024-01-15T06:01:06;92978.88;;;10.31;35.37
70902;BME280;58548;47.210;8.618;2024-01-15T06:03:32;92969.69;;;10.28;35.02
70902;BME280;58548;47.210;8.618;2024-01-15T06:06:00;93017.63;;;10.59;35.41
70902;BME280;58548;47.210;8.618;2024-01-15T06:08:26;93042.34;;;10.75;35.29
70902;BME280;58548;47.210;8.618;2024-01-15T06:10:55;93022.03;;;10.59;34.97
70902;BME280;58548;47.210;8.618;2024-01-15T06:13:21;92966.91;;;10.23;35.82
70902;BME280;58548;47.210;8.618;2024-01-15T06:15:49;93050.00;;;10.77;35.54
70902;BME280;58548;47.210;8.618;2024-01-15T06:18:15;93028.50;;;10.56;34.88
70902;BME280;58548;47.210;8.618;2024-01-15T06:20:46;93047.22;;;10.71;34.74
70902;BME280;58548;47.210;8.618;2024-01-15T06:23:12;92977.78;;;10.20;34.70
70902;BME280;58548;47.210;8.618;2024-01-15T06:25:43;93058.91;;;10.69;35.09
70902;BME280;58548;47.210;8.618;2024-01-15T06:28:11;92989.19;;;10.25;35.43
70902;BME280;58548;47.210;8.618;2024-01-15T06:30:42;92973.00;;;10.17;35.37
70902;BME280;58548;47.210;8.618;2024-01-15T06:33:10;93029.81;;;10.40;35.06
70902;BME280;58548;47.210;8.618;2024-01-15T06:35:38;92998.63;;;10.20;34.71
70902;BME280;58548;47.210;8.618;2024-01-15T06:38:04;92940.22;;;9.77;35.34
70902;BME280;58548;47.210;8.618;2024-01-15T06:40:32;92971.22;;;9.85;34.94
70902;BME280;58548;47.210;8.618;2024-01-15T06:43:03;92892.22;;;9.27;35.36
70902;BME280;58548;47.210;8.618;2024-01-15T06:45:29;93042.31;;;10.31;35.26
70902;BME280;58548;47.210;8.618;2024-01-15T06:47:55;92957.81;;;9.81;34.86
70902;BME280;58548;47.210;8.618;2024-01-15T06:50:20;92962.38;;;9.86;35.05
70902;BME280;58548;47.210;8.618;2024-01-15T06:52:46;93037.69;;;10.33;35.16
70902;BME280;58548;47.210;8.618;2024-01-15T06:55:15;93039.88;;;10.36;35.31
70902;BME280;58548;47.210;8.618;2024-01-15T06:57:41;93033.66;;;10.37;34.66
70902;BME280;58548;47.210;8.618;2024-01-15T07:00:07;93005.47;;;10.21;35.47
70902;BME280;58548;47.210;8.618;2024-01-15T07:02:34;93027.03;;;10.35;34.64
70902;BME280;58548;47.210;8.618;2024-01-15T07:05:00;92942.47;;;9.73;34.72
70902;BME280;58548;47.210;8.618;2024-01-15T07:07:26;93036.34;;;10.24;35.17
70902;BME280;58548;47.210;8.618;2024-01-15T07:09:54;93029.66;;;10.09;35.63
70902;BME280;58548;47.210;8.618;2024-01-15T07:12:20;93037.19;;;10.18;35.25
70902;BME280;58548;47.210;8.618;2024-01-15T07:14:46;92962.13;;;9.69;35.88
70902;BME280;58548;47.210;8.618;2024-01-15T07:17:12;92950.84;;;9.75;35.95
70902;BME280;58548;47.210;8.618;2024-01-15T07:19:41;92955.44;;;9.80;35.72
70902;BME280;58548;47.210;8.618;2024-01-15T07:22:07;92961.19;;;9.89;35.93
70902;BME280;58548;47.210;8.618;2024-01-15T07:24:33;92963.50;;;9.97;36.62
70902;BME280;58548;47.210;8.618;2024-01-15T07:27:04;93035.56;;;10.49;35.73
70902;BME280;58548;47.210;8.618;2024-01-15T07:29:30;93037.25;;;10.62;35.93
70902;BME280;58548;47.210;8.618;2024-01-15T07:32:00;93019.91;;;10.49;35.69
70902;BME280;58548;47.210;8.618;2024-01-15T07:34:31;92994.53;;;10.31;35.81
70902;BME280;58548;47.210;8.618;2024-01-15T07:36:59;92953.41;;;10.07;35.76
70902;BME280;58548;47.210;8.618;2024-01-15T07:39:25;92964.00;;;10.13;36.03
70902;BME280;58548;47.210;8.618;2024-01-15T07:41:56;92947.81;;;10.04;35.52
70902;BME280;58548;47.210;8.618;2024-01-15T07:44:25;92964.78;;;10.13;36.14
70902;BME280;58548;47.210;8.618;2024-01-15T07:46:53;93053.28;;;10.65;35.90
70902;BME280;58548;47.210;8.618;2024-01-15T07:49:21;93045.09;;;10.62;36.11
70902;BME280;58548;47.210;8.618;2024-01-15T07:51:51;93042.84;;;10.65;36.08
70902;BME280;58548;47.210;8.618;2024-01-15T07:54:17;93052.50;;;10.65;35.50
70902;BME280;58548;47.210;8.618;2024-01-15T07:56:56;93037.69;;;10.59;36.12
70902;BME280;58548;47.210;8.618;2024-01-15T07:59:26;93042.69;;;10.60;35.86
70902;BME280;58548;47.210;8.618;2024-01-15T08:01:54;93022.59;;;10.42;36.41
70902;BME280;58548;47.210;8.618;2024-01-15T08:04:20;93044.50;;;10.60;36.51
70902;BME280;58548;47.210;8.618;2024-01-15T08:06:49;93056.91;;;10.64;36.27
70902;BME280;58548;47.210;8.618;2024-01-15T08:09:18;92959.78;;;10.11;35.79
70902;BME280;58548;47.210;8.618;2024-01-15T08:11:44;92953.19;;;10.09;35.74
70902;BME280;58548;47.210;8.618;2024-01-15T08:14:10;93046.47;;;10.64;35.34
70902;BME280;58548;47.210;8.618;2024-01-15T08:16:37;92981.97;;;10.21;35.66
70902;BME280;58548;47.210;8.618;2024-01-15T08:19:06;93037.25;;;10.62;35.69
70902;BME280;58548;47.210;8.618;2024-01-15T08:21:37;93057.66;;;10.71;35.63
70902;BME280;58548;47.210;8.618;2024-01-15T08:24:03;93055.06;;;10.71;35.23
70902;BME280;58548;47.210;8.618;2024-01-15T08:26:31;92904.34;;;9.72;35.40
70902;BME280;58548;47.210;8.618;2024-01-15T08:28:58;92970.16;;;10.18;35.44
70902;BME280;58548;47.210;8.618;2024-01-15T08:31:24;92968.56;;;10.17;34.81
70902;BME280;58548;47.210;8.618;2024-01-15T08:33:53;93058.03;;;10.75;34.87
70902;BME280;58548;47.210;8.618;2024-01-15T08:36:19;93059.63;;;10.76;34.73
70902;BME280;58548;47.210;8.618;2024-01-15T08:38:49;93059.53;;;10.83;35.12
70902;BME280;58548;47.210;8.618;2024-01-15T08:41:15;93056.34;;;10.81;35.13
70902;BME280;58548;47.210;8.618;2024-01-15T08:43:44;92974.63;;;10.36;35.33
70902;BME280;58548;47.210;8.618;2024-01-15T08:46:09;93027.19;;;10.65;35.35
70902;BME280;58548;47.210;8.618;2024-01-15T08:48:38;93050.69;;;10.84;35.17
70902;BME280;58548;47.210;8.618;2024-01-15T08:51:07;92972.59;;;10.38;35.10
70902;BME280;58548;47.210;8.618;2024-01-15T08:53:33;93064.06;;;10.94;34.54
70902;BME280;58548;47.210;8.618;2024-01-15T08:55:59;92905.56;;;9.95;34.19
70902;BME280;58548;47.210;8.618;2024-01-15T08:58:31;92960.84;;;10.29;35.23
70902;BME280;58548;47.210;8.618;2024-01-15T09:00:57;93046.28;;;10.84;34.64
70902;BME280;58548;47.210;8.618;2024-01-15T09:03:27;92976.19;;;10.44;34.68
70902;BME280;58548;47.210;8.618;2024-01-15T09:06:00;92982.94;;;10.52;35.27
70902;BME280;58548;47.210;8.618;2024-01-15T09:08:29;92981.94;;;10.53;34.41
70902;BME280;58548;47.210;8.618;2024-01-15T09:10:57;93069.56;;;11.05;34.36
70902;BME280;58548;47.210;8.618;2024-01-15T09:13:26;93062.91;;;11.09;34.57
70902;BME280;58548;47.210;8.618;2024-01-15T09:15:52;93047.66;;;11.06;34.02
70902;BME280;58548;47.210;8.618;2024-01-15T09:18:18;92992.22;;;10.66;34.33
70902;BME280;58548;47.210;8.618;2024-01-15T09:20:44;93066.09;;;11.11;34.65
70902;BME280;58548;47.210;8.618;2024-01-15T09:23:12;93071.34;;;11.11;34.33
70902;BME280;58548;47.210;8.618;2024-01-15T09:25:38;92981.63;;;10.61;34.46
70902;BME280;58548;47.210;8.618;2024-01-15T09:28:04;93074.09;;;11.16;33.81
70902;BME280;58548;47.210;8.618;2024-01-15T09:30:30;93034.91;;;10.97;33.65
70902;BME280;58548;47.210;8.618;2024-01-15T09:32:56;93074.81;;;11.23;34.27
70902;BME280;58548;47.210;8.618;2024-01-15T09:35:22;93071.31;;;11.29;33.31
70902;BME280;58548;47.210;8.618;2024-01-15T09:37:50;92992.09;;;10.80;33.80
70902;BME280;58548;47.210;8.618;2024-01-15T09:40:21;92980.09;;;10.72;33.94
70902;BME280;58548;47.210;8.618;2024-01-15T09:42:47;93067.84;;;11.36;33.61
70902;BME280;58548;47.210;8.618;2024-01-15T09:45:13;92984.38;;;10.85;33.20
70902;BME280;58548;47.210;8.618;2024-01-15T09:47:43;93062.28;;;11.32;33.60
70902;BME280;58548;47.210;8.618;2024-01-15T09:50:10;93057.91;;;11.26;33.35
70902;BME280;58548;47.210;8.618;2024-01-15T09:52:38;93062.31;;;11.25;33.24
70902;BME280;58548;47.210;8.618;2024-01-15T09:55:08;93066.47;;;11.33;33.26
70902;BME280;58548;47.210;8.618;2024-01-15T09:57:36;93055.97;;;11.21;33.35
70902;BME280;58548;47.210;8.618;2024-01-15T10:00:05;93072.50;;;11.34;32.89
70902;BME280;58548;47.210;8.618;2024-01-15T10:02:35;93073.50;;;11.32;32.50
70902;BME280;58548;47.210;8.618;2024-01-15T10:05:01;93069.16;;;11.26;32.15
70902;BME280;58548;47.210;8.618;2024-01-15T10:07:29;93064.34;;;11.23;33.06
70902;BME280;58548;47.210;8.618;2024-01-15T10:09:55;92981.78;;;10.66;32.64
70902;BME280;58548;47.210;8.618;2024-01-15T10:12:24;93005.66;;;10.89;32.51
70902;BME280;58548;47.210;8.618;2024-01-15T10:14:52;93053.97;;;11.16;33.20
70902;BME280;58548;47.210;8.618;2024-01-15T10:17:21;93012.09;;;10.86;32.84
70902;BME280;58548;47.210;8.618;2024-01-15T10:19:49;92956.41;;;10.55;32.76
70902;BME280;58548;47.210;8.618;2024-01-15T10:22:15;93041.22;;;11.08;32.73
70902;BME280;58548;47.210;8.618;2024-01-15T10:24:41;92940.72;;;10.36;32.42
70902;BME280;58548;47.210;8.618;2024-01-15T10:27:08;92944.47;;;10.40;32.78
70902;BME280;58548;47.210;8.618;2024-01-15T10:29:36;93031.63;;;11.02;33.04
70902;BME280;58548;47.210;8.618;2024-01-15T10:32:08;92928.25;;;10.38;32.36
70902;BME280;58548;47.210;8.618;2024-01-15T10:34:38;93017.19;;;10.99;32.25
70902;BME280;58548;47.210;8.618;2024-01-15T10:37:10;93027.94;;;11.10;32.47
70902;BME280;58548;47.210;8.618;2024-01-15T10:39:38;92936.53;;;10.54;32.34
70902;BME280;58548;47.210;8.618;2024-01-15T10:42:07;93024.81;;;11.01;31.74
70902;BME280;58548;47.210;8.618;2024-01-15T10:44:35;93019.66;;;10.94;32.22
70902;BME280;58548;47.210;8.618;2024-01-15T10:47:06;92964.00;;;10.56;32.70
70902;BME280;58548;47.210;8.618;2024-01-15T10:49:32;92926.22;;;10.40;31.54
70902;BME280;58548;47.210;8.618;2024-01-15T10:51:58;93006.19;;;10.97;31.94
70902;BME280;58548;47.210;8.618;2024-01-15T10:54:27;93017.75;;;11.01;30.92
70902;BME280;58548;47.210;8.618;2024-01-15T10:56:58;92973.94;;;10.85;32.01
70902;BME280;58548;47.210;8.618;2024-01-15T10:59:26;92971.91;;;10.87;32.53
70902;BME280;58548;47.210;8.618;2024-01-15T11:01:53;93009.56;;;11.16;31.68
70902;BME280;58548;47.210;8.618;2024-01-15T11:04:21;93006.84;;;11.23;31.30
70902;BME280;58548;47.210;8.618;2024-01-15T11:06:53;92913.75;;;10.61;31.53
70902;BME280;58548;47.210;8.618;2024-01-15T11:09:19;92866.81;;;10.36;31.29
70902;BME280;58548;47.210;8.618;2024-01-15T11:11:47;92934.66;;;10.80;31.47
70902;BME280;58548;47.210;8.618;2024-01-15T11:17:09;92943.34;;;10.92;31.79
70902;BME280;58548;47.210;8.618;2024-01-15T11:19:49;93015.56;;;11.36;31.47
70902;BME280;58548;47.210;8.618;2024-01-15T11:24:57;92979.50;;;11.26;31.40
70902;BME280;58548;47.210;8.618;2024-01-15T11:30:08;92901.00;;;10.71;31.41
70902;BME280;58548;47.210;8.618;2024-01-15T11:32:36;92933.47;;;10.94;31.28
70902;BME280;58548;47.210;8.618;2024-01-15T11:35:07;92947.81;;;11.04;31.75
70902;BME280;58548;47.210;8.618;2024-01-15T11:43:03;92949.44;;;11.16;31.74
70902;BME280;58548;47.210;8.618;2024-01-15T11:45:30;92986.06;;;11.47;31.18
70902;BME280;58548;47.210;8.618;2024-01-15T11:48:09;92977.63;;;11.45;31.69
70902;BME280;58548;47.210;8.618;2024-01-15T11:50:57;92981.25;;;11.44;30.95
70902;BME280;58548;47.210;8.618;2024-01-15T11:56:15;92890.94;;;10.87;31.81
70902;BME280;58548;47.210;8.618;2024-01-15T11:58:45;92963.44;;;11.41;31.27
70902;BME280;58548;47.210;8.618;2024-01-15T12:01:11;92908.19;;;11.07;31.03
70902;BME280;58548;47.210;8.618;2024-01-15T12:03:39;92975.53;;;11.54;31.49
70902;BME280;58548;47.210;8.618;2024-01-15T12:06:08;92953.09;;;11.46;31.02
70902;BME280;58548;47.210;8.618;2024-01-15T12:08:37;92977.81;;;11.62;30.91
70902;BME280;58548;47.210;8.618;2024-01-15T12:11:07;92973.84;;;11.59;30.96
70902;BME280;58548;47.210;8.618;2024-01-15T12:13:36;92959.16;;;11.58;30.88
70902;BME280;58548;47.210;8.618;2024-01-15T12:16:02;92973.16;;;11.64;30.60
70902;BME280;58548;47.210;8.618;2024-01-15T12:18:30;92856.03;;;11.00;30.86
70902;BME280;58548;47.210;8.618;2024-01-15T12:20:57;92951.31;;;11.58;30.38
70902;BME280;58548;47.210;8.618;2024-01-15T12:23:24;92860.66;;;10.98;31.12
70902;BME280;58548;47.210;8.618;2024-01-15T12:25:53;92949.81;;;11.51;31.13
70902;BME280;58548;47.210;8.618;2024-01-15T12:28:23;92951.19;;;11.53;30.48
70902;BME280;58548;47.210;8.618;2024-01-15T12:30:51;92952.91;;;11.59;30.59
70902;BME280;58548;47.210;8.618;2024-01-15T12:33:22;92947.69;;;11.59;31.00
70902;BME280;58548;47.210;8.618;2024-01-15T12:35:48;92953.50;;;11.61;31.39
70902;BME280;58548;47.210;8.618;2024-01-15T12:38:14;92946.09;;;11.58;30.73
70902;BME280;58548;47.210;8.618;2024-01-15T12:40:40;92887.13;;;11.20;30.15
70902;BME280;58548;47.210;8.618;2024-01-15T12:43:06;92939.22;;;11.45;31.26
70902;BME280;58548;47.210;8.618;2024-01-15T12:45:32;92952.91;;;11.59;31.15
70902;BME280;58548;47.210;8.618;2024-01-15T12:47:59;92945.03;;;11.48;30.57
70902;BME280;58548;47.210;8.618;2024-01-15T12:50:26;92952.66;;;11.49;30.44
70902;BME280;58548;47.210;8.618;2024-01-15T12:52:52;92947.78;;;11.53;30.84
70902;BME280;58548;47.210;8.618;2024-01-15T12:55:20;92872.63;;;11.06;30.84
70902;BME280;58548;47.210;8.618;2024-01-15T12:57:49;92945.06;;;11.59;30.15
70902;BME280;58548;47.210;8.618;2024-01-15T13:00:18;92898.16;;;11.34;30.48
70902;BME280;58548;47.210;8.618;2024-01-15T13:02:48;92855.28;;;11.11;29.87
70902;BME280;58548;47.210;8.618;2024-01-15T13:05:16;92793.09;;;10.59;30.06
70902;BME280;58548;47.210;8.618;2024-01-15T13:07:42;92926.69;;;11.36;30.36
70902;BME280;58548;47.210;8.618;2024-01-15T13:10:08;92918.84;;;11.36;30.76
70902;BME280;58548;47.210;8.618;2024-01-15T13:12:38;92826.16;;;10.65;30.09
70902;BME280;58548;47.210;8.618;2024-01-15T13:15:03;92872.31;;;10.83;30.68
70902;BME280;58548;47.210;8.618;2024-01-15T13:17:33;92823.63;;;10.59;30.22
70902;BME280;58548;47.210;8.618;2024-01-15T13:19:59;92843.41;;;10.66;30.53